createdAt,value
2023-07-30T00:00:52.973Z,94454.31
2023-07-30T00:03:20.167Z,94462.78
2023-07-30T00:05:56.827Z,94451.03
2023-07-30T00:08:24.364Z,94457.31
2023-07-30T00:10:51.575Z,94454.25
2023-07-30T00:13:18.535Z,94459.00
2023-07-30T00:15:48.407Z,94458.63
2023-07-30T00:18:16.025Z,94459.03
2023-07-30T00:20:43.068Z,94455.50
2023-07-30T00:23:10.141Z,94450.03
2023-07-30T00:25:37.194Z,94447.69
2023-07-30T00:28:04.461Z,94450.09
2023-07-30T00:30:31.442Z,94449.75
2023-07-30T00:32:58.499Z,94434.13
2023-07-30T00:35:25.573Z,94441.22
2023-07-30T00:37:52.654Z,94442.69
2023-07-30T00:40:19.843Z,94445.00
2023-07-30T00:42:46.954Z,94438.28
2023-07-30T00:45:14.095Z,94440.97
2023-07-30T00:47:42.308Z,94446.44
2023-07-30T00:50:10.577Z,94442.19
2023-07-30T00:52:38.084Z,94435.59
2023-07-30T00:55:05.973Z,94439.50
2023-07-30T00:57:33.599Z,94441.81
2023-07-30T01:00:00.753Z,94445.31
2023-07-30T01:02:29.142Z,94439.41
2023-07-30T01:04:56.970Z,94442.50
2023-07-30T01:07:23.924Z,94442.50
2023-07-30T01:09:51.124Z,94444.88
2023-07-30T01:12:18.139Z,94447.13
2023-07-30T01:14:46.808Z,94451.66
2023-07-30T01:17:14.378Z,94450.81
2023-07-30T01:19:41.557Z,94453.16
2023-07-30T01:22:08.684Z,94450.78
2023-07-30T01:24:35.616Z,94442.19
2023-07-30T01:27:06.675Z,94441.03
2023-07-30T01:29:55.634Z,94444.13
2023-07-30T01:32:27.468Z,94447.59
2023-07-30T01:34:56.480Z,94454.53
2023-07-30T01:37:24.005Z,94449.78
2023-07-30T01:39:51.641Z,94449.00
2023-07-30T01:42:18.978Z,94458.38
2023-07-30T01:44:46.002Z,94460.34
2023-07-30T01:47:13.113Z,94452.13
2023-07-30T01:49:40.082Z,94451.72
2023-07-30T01:52:07.496Z,94455.22
2023-07-30T01:54:34.487Z,94454.75
2023-07-30T01:57:01.491Z,94462.09
2023-07-30T01:59:28.488Z,94461.22
2023-07-30T02:01:55.488Z,94463.88
2023-07-30T02:04:22.525Z,94461.03
2023-07-30T02:06:49.886Z,94462.50
2023-07-30T02:09:16.849Z,94457.00
2023-07-30T02:11:43.801Z,94460.75
2023-07-30T02:14:11.598Z,94458.66
2023-07-30T02:16:38.563Z,94460.53
2023-07-30T02:19:05.703Z,94461.19
2023-07-30T02:21:33.698Z,94459.94
2023-07-30T02:24:01.012Z,94457.94
2023-07-30T02:26:27.942Z,94464.53
2023-07-30T02:28:54.888Z,94463.69
2023-07-30T02:31:22.371Z,94463.31
2023-07-30T02:33:49.274Z,94471.13
2023-07-30T02:36:16.387Z,94466.47
2023-07-30T02:38:43.240Z,94463.00
2023-07-30T02:41:10.347Z,94470.03
2023-07-30T02:43:37.263Z,94471.13
2023-07-30T02:46:04.312Z,94467.91
2023-07-30T02:48:31.268Z,94470.94
2023-07-30T02:50:58.259Z,94461.50
2023-07-30T02:53:25.254Z,94463.81
2023-07-30T02:55:52.208Z,94464.53
2023-07-30T02:58:19.654Z,94477.03
2023-07-30T03:00:46.652Z,94472.28
2023-07-30T03:03:14.018Z,94472.28
2023-07-30T03:05:44.579Z,94476.88
2023-07-30T03:08:11.565Z,94473.75
2023-07-30T03:10:38.619Z,94478.78
2023-07-30T03:13:05.608Z,94474.47
2023-07-30T03:15:32.608Z,94471.31
2023-07-30T03:17:59.608Z,94469.31
2023-07-30T03:20:26.685Z,94473.31
2023-07-30T03:22:55.223Z,94469.13
2023-07-30T03:25:22.238Z,94477.88
2023-07-30T03:27:49.557Z,94474.41
2023-07-30T03:30:16.714Z,94470.16
2023-07-30T03:32:43.806Z,94471.78
2023-07-30T03:35:10.768Z,94472.56
2023-07-30T03:37:37.710Z,94474.88
2023-07-30T03:40:06.552Z,94471.38
2023-07-30T03:42:33.435Z,94487.47
2023-07-30T03:45:00.420Z,94485.16
2023-07-30T03:47:27.716Z,94482.06
2023-07-30T03:49:55.413Z,94479.75
2023-07-30T03:52:22.376Z,94484.47
2023-07-30T03:54:49.360Z,94486.84
2023-07-30T03:57:16.258Z,94476.75
2023-07-30T03:59:43.273Z,94485.00
2023-07-30T04:02:10.540Z,94488.25
2023-07-30T04:04:37.505Z,94490.22
2023-07-30T04:07:04.769Z,94487.09
2023-07-30T04:09:32.056Z,94490.09
2023-07-30T04:12:00.324Z,94504.81
2023-07-30T04:14:27.225Z,94497.72
2023-07-30T04:16:54.685Z,94501.25
2023-07-30T04:19:22.270Z,94492.63
2023-07-30T04:21:49.332Z,94500.81
2023-07-30T04:24:16.350Z,94503.25
2023-07-30T04:26:43.377Z,94501.03
2023-07-30T04:29:11.664Z,94502.75
2023-07-30T04:31:39.213Z,94499.75
2023-07-30T04:34:06.686Z,94505.28
2023-07-30T04:36:33.705Z,94507.00
2023-07-30T04:39:00.981Z,94497.00
2023-07-30T04:41:34.483Z,94510.03
2023-07-30T04:44:02.892Z,94511.72
2023-07-30T04:46:31.309Z,94509.13
2023-07-30T04:48:59.190Z,94508.97
2023-07-30T04:51:27.062Z,94512.97
2023-07-30T04:53:53.939Z,94509.13
2023-07-30T04:56:20.906Z,94516.97
2023-07-30T04:58:47.929Z,94513.00
2023-07-30T05:01:14.982Z,94508.72
2023-07-30T05:03:42.015Z,94504.09
2023-07-30T05:06:09.048Z,94513.56
2023-07-30T05:08:36.021Z,94508.09
2023-07-30T05:11:02.973Z,94510.50
2023-07-30T05:13:29.835Z,94513.66
2023-07-30T05:15:57.240Z,94509.75
2023-07-30T05:18:24.556Z,94513.31
2023-07-30T05:20:51.653Z,94513.38
2023-07-30T05:23:18.636Z,94515.34
2023-07-30T05:25:45.593Z,94510.72
2023-07-30T05:28:13.149Z,94503.75
2023-07-30T05:30:40.150Z,94506.63
2023-07-30T05:33:07.086Z,94504.72
2023-07-30T05:35:34.102Z,94506.41
2023-07-30T05:38:01.071Z,94505.03
2023-07-30T05:40:28.043Z,94511.59
2023-07-30T05:42:55.071Z,94513.84
2023-07-30T05:45:22.097Z,94517.41
2023-07-30T05:47:49.144Z,94516.00
2023-07-30T05:50:16.279Z,94518.63
2023-07-30T05:52:43.304Z,94519.91
2023-07-30T05:55:10.395Z,94516.88
2023-07-30T05:57:37.835Z,94518.13
2023-07-30T06:00:05.600Z,94520.91
2023-07-30T06:02:39.213Z,94524.09
2023-07-30T06:05:06.528Z,94524.97
2023-07-30T06:07:33.513Z,94521.84
2023-07-30T06:10:00.470Z,94524.25
2023-07-30T06:12:27.421Z,94516.81
2023-07-30T06:14:54.364Z,94520.44
2023-07-30T06:17:21.402Z,94516.94
2023-07-30T06:19:48.355Z,94522.03
2023-07-30T06:22:15.377Z,94519.44
2023-07-30T06:27:26.680Z,94520.75
2023-07-30T06:29:53.733Z,94519.22
2023-07-30T06:32:20.790Z,94513.75
2023-07-30T06:34:47.699Z,94513.81
2023-07-30T06:37:14.702Z,94494.66
2023-07-30T06:39:41.722Z,94503.72
2023-07-30T06:42:09.974Z,94499.06
2023-07-30T06:44:36.932Z,94501.81
2023-07-30T06:47:04.169Z,94495.16
2023-07-30T06:49:31.263Z,94499.88
2023-07-30T06:51:58.247Z,94495.59
2023-07-30T06:54:25.254Z,94481.06
2023-07-30T06:56:53.513Z,94486.56
2023-07-30T06:59:20.488Z,94486.94
2023-07-30T07:01:47.408Z,94488.13
2023-07-30T07:04:14.707Z,94486.56
2023-07-30T07:06:41.680Z,94484.19
2023-07-30T07:09:08.732Z,94481.38
2023-07-30T07:11:36.140Z,94475.47
2023-07-30T07:14:04.255Z,94473.09
2023-07-30T07:16:31.231Z,94480.13
2023-07-30T07:18:58.220Z,94476.16
2023-07-30T07:21:25.199Z,94473.78
2023-07-30T07:23:52.211Z,94476.09
2023-07-30T07:26:19.184Z,94471.34
2023-07-30T07:28:46.163Z,94476.03
2023-07-30T07:31:13.310Z,94463.03
2023-07-30T07:33:41.110Z,94460.63
2023-07-30T07:36:09.200Z,94461.00
2023-07-30T07:38:36.273Z,94459.00
2023-07-30T07:41:03.384Z,94459.41
2023-07-30T07:43:30.432Z,94456.16
2023-07-30T07:45:57.490Z,94458.44
2023-07-30T07:48:24.826Z,94452.00
2023-07-30T07:50:51.850Z,94450.69
2023-07-30T07:53:18.866Z,94452.56
2023-07-30T07:55:45.846Z,94450.75
2023-07-30T07:58:12.952Z,94448.16
2023-07-30T08:00:39.909Z,94445.38
2023-07-30T08:03:06.923Z,94447.59
2023-07-30T08:05:33.905Z,94447.56
2023-07-30T08:08:00.910Z,94440.47
2023-07-30T08:10:27.917Z,94437.66
2023-07-30T08:12:54.857Z,94438.31
2023-07-30T08:15:22.072Z,94433.81
2023-07-30T08:17:49.082Z,94431.34
2023-07-30T08:20:16.211Z,94435.13
2023-07-30T08:22:43.198Z,94434.94
2023-07-30T08:25:10.439Z,94438.28
2023-07-30T08:27:37.362Z,94427.47
2023-07-30T08:30:04.716Z,94432.91
2023-07-30T08:32:33.835Z,94429.47
2023-07-30T08:35:00.898Z,94427.06
2023-07-30T08:37:27.889Z,94426.09
2023-07-30T08:39:54.789Z,94417.97
2023-07-30T08:42:21.745Z,94414.59
2023-07-30T08:44:48.619Z,94415.19
2023-07-30T08:47:16.245Z,94415.13
2023-07-30T08:49:43.330Z,94413.38
2023-07-30T08:52:11.321Z,94417.47
2023-07-30T08:54:40.497Z,94405.28
2023-07-30T08:57:08.791Z,94406.19
2023-07-30T08:59:43.478Z,94410.03
2023-07-30T09:02:18.150Z,94409.88
2023-07-30T09:04:49.392Z,94405.28
2023-07-30T09:07:17.423Z,94404.84
2023-07-30T09:09:45.237Z,94403.03
2023-07-30T09:12:18.784Z,94399.63
2023-07-30T09:14:52.120Z,94401.88
2023-07-30T09:17:19.893Z,94404.81
2023-07-30T09:19:51.817Z,94394.88
2023-07-30T09:22:29.504Z,94397.97
2023-07-30T09:24:57.855Z,94396.03
2023-07-30T09:27:27.808Z,94399.78
2023-07-30T09:29:58.688Z,94391.94
2023-07-30T09:32:36.240Z,94396.88
2023-07-30T09:35:10.778Z,94381.38
2023-07-30T09:37:40.064Z,94377.38
2023-07-30T09:40:08.746Z,94374.34
2023-07-30T09:42:39.158Z,94373.53
2023-07-30T09:45:08.495Z,94366.47
2023-07-30T09:47:38.617Z,94372.50
2023-07-30T09:50:06.428Z,94363.78
2023-07-30T09:52:34.162Z,94360.75
2023-07-30T09:55:01.762Z,94367.78
2023-07-30T09:57:28.732Z,94355.63
2023-07-30T09:59:55.700Z,94360.97
2023-07-30T10:02:25.812Z,94354.38
2023-07-30T10:04:56.440Z,94353.47
2023-07-30T10:07:25.998Z,94350.94
2023-07-30T10:09:59.279Z,94341.81
2023-07-30T10:12:31.990Z,94331.91
2023-07-30T10:14:59.036Z,94336.44
2023-07-30T10:17:26.118Z,94336.53
2023-07-30T10:19:53.125Z,94334.94
2023-07-30T10:22:29.117Z,94335.09
2023-07-30T10:25:11.389Z,94326.38
2023-07-30T10:27:40.877Z,94325.81
2023-07-30T10:30:18.624Z,94319.28
2023-07-30T10:33:17.857Z,94316.94
2023-07-30T10:35:50.052Z,94303.63
2023-07-30T10:38:29.429Z,94306.16
2023-07-30T10:41:25.849Z,94300.31
2023-07-30T10:43:55.035Z,94300.88
2023-07-30T10:46:22.108Z,94289.97
2023-07-30T10:48:50.180Z,94284.03
2023-07-30T10:51:19.350Z,94278.28
2023-07-30T10:53:50.678Z,94277.50
2023-07-30T10:56:20.022Z,94277.56
2023-07-30T10:58:52.104Z,94271.34
2023-07-30T11:01:19.581Z,94270.69
2023-07-30T11:03:52.170Z,94267.16
2023-07-30T11:06:26.579Z,94257.59
2023-07-30T11:08:53.869Z,94253.41
2023-07-30T11:11:20.936Z,94254.91
2023-07-30T11:13:48.855Z,94241.97
2023-07-30T11:16:17.134Z,94244.66
2023-07-30T11:18:45.362Z,94240.69
2023-07-30T11:21:17.681Z,94237.94
2023-07-30T11:23:46.317Z,94245.59
2023-07-30T11:26:20.939Z,94235.13
2023-07-30T11:28:48.603Z,94233.75
2023-07-30T11:31:18.582Z,94232.63
2023-07-30T11:33:47.847Z,94231.09
2023-07-30T11:36:21.272Z,94223.47
2023-07-30T11:38:49.236Z,94220.66
2023-07-30T11:41:17.001Z,94215.22
2023-07-30T11:43:45.509Z,94212.16
2023-07-30T11:46:24.057Z,94213.28
2023-07-30T11:49:11.175Z,94209.59
2023-07-30T11:51:38.456Z,94204.38
2023-07-30T11:54:05.661Z,94194.19
2023-07-30T11:56:34.710Z,94184.69
2023-07-30T11:59:08.744Z,94190.44
2023-07-30T12:01:37.936Z,94184.56
2023-07-30T12:04:07.218Z,94182.56
2023-07-30T12:07:03.282Z,94170.31
2023-07-30T12:09:36.188Z,94167.03
2023-07-30T12:12:03.455Z,94162.16
2023-07-30T12:14:45.301Z,94153.44
2023-07-30T12:17:12.269Z,94151.38
2023-07-30T12:19:39.259Z,94147.53
2023-07-30T12:22:06.266Z,94152.41
2023-07-30T12:24:33.302Z,94138.31
2023-07-30T12:27:00.283Z,94150.38
2023-07-30T12:29:27.549Z,94152.94
2023-07-30T12:31:54.929Z,94145.25
2023-07-30T12:34:24.244Z,94146.53
2023-07-30T12:36:51.287Z,94140.84
2023-07-30T12:39:18.260Z,94139.69
2023-07-30T12:41:45.164Z,94139.97
2023-07-30T12:44:12.067Z,94134.50
2023-07-30T12:46:39.075Z,94123.63
2023-07-30T12:49:06.467Z,94118.63
2023-07-30T12:51:34.317Z,94112.50
2023-07-30T12:54:01.587Z,94118.13
2023-07-30T12:56:28.714Z,94117.25
2023-07-30T12:58:55.709Z,94112.38
2023-07-30T13:01:22.739Z,94114.75
2023-07-30T13:03:51.533Z,94109.72
2023-07-30T13:06:19.154Z,94104.28
2023-07-30T13:08:46.110Z,94106.31
2023-07-30T13:11:13.001Z,94098.03
2023-07-30T13:13:40.121Z,94102.94
2023-07-30T13:16:07.194Z,94097.06
2023-07-30T13:18:34.113Z,94097.69
2023-07-30T13:21:01.241Z,94089.03
2023-07-30T13:23:30.174Z,94091.56
2023-07-30T13:25:57.342Z,94087.47
2023-07-30T13:28:24.468Z,94090.78
2023-07-30T13:30:52.459Z,94090.22
2023-07-30T13:33:19.538Z,94091.47
2023-07-30T13:35:46.520Z,94084.63
2023-07-30T13:38:13.525Z,94074.13
2023-07-30T13:40:40.559Z,94079.78
2023-07-30T13:43:07.555Z,94075.63
2023-07-30T13:45:34.567Z,94070.66
2023-07-30T13:48:01.628Z,94079.53
2023-07-30T13:50:28.610Z,94071.75
2023-07-30T13:52:55.504Z,94069.38
2023-07-30T13:55:22.600Z,94066.50
2023-07-30T13:57:49.566Z,94065.41
2023-07-30T14:00:16.654Z,94056.09
2023-07-30T14:02:44.428Z,94058.38
2023-07-30T14:05:12.110Z,94059.28
2023-07-30T14:07:39.163Z,94055.06
2023-07-30T14:10:06.735Z,94045.84
2023-07-30T14:12:33.646Z,94051.78
2023-07-30T14:15:00.635Z,94046.28
2023-07-30T14:17:27.632Z,94036.13
2023-07-30T14:19:56.834Z,94041.88
2023-07-30T14:22:23.796Z,94041.81
2023-07-30T14:24:50.788Z,94045.56
2023-07-30T14:27:18.083Z,94039.00
2023-07-30T14:29:45.093Z,94042.22
2023-07-30T14:32:12.196Z,94037.44
2023-07-30T14:34:39.164Z,94031.44
2023-07-30T14:37:07.235Z,94029.22
2023-07-30T14:39:35.650Z,94033.88
2023-07-30T14:42:02.606Z,94025.13
2023-07-30T14:44:29.681Z,94027.00
2023-07-30T14:46:58.251Z,94024.84
2023-07-30T14:49:25.438Z,94023.78
2023-07-30T14:51:55.747Z,94012.31
2023-07-30T14:54:22.741Z,94018.81
2023-07-30T14:56:49.734Z,94012.53
2023-07-30T14:59:16.843Z,94009.53
2023-07-30T15:01:43.963Z,94001.72
2023-07-30T15:04:11.154Z,94007.25
2023-07-30T15:06:38.551Z,94017.38
2023-07-30T15:09:05.977Z,94013.09
2023-07-30T15:11:32.978Z,94008.81
2023-07-30T15:14:00.097Z,94006.94
2023-07-30T15:16:27.188Z,93999.78
2023-07-30T15:18:54.361Z,94005.03
2023-07-30T15:21:21.455Z,93998.06
2023-07-30T15:23:48.446Z,93998.06
2023-07-30T15:26:16.985Z,93999.81
2023-07-30T15:28:44.175Z,94005.91
2023-07-30T15:31:11.317Z,93998.16
2023-07-30T15:33:38.340Z,93986.66
2023-07-30T15:36:05.781Z,93995.66
2023-07-30T15:38:32.998Z,93986.53
2023-07-30T15:41:00.314Z,93984.75
2023-07-30T15:43:27.387Z,93979.69
2023-07-30T15:45:54.968Z,93975.63
2023-07-30T15:48:22.595Z,93981.44
2023-07-30T15:50:49.945Z,93984.00
2023-07-30T15:53:16.983Z,93985.63
2023-07-30T15:55:45.262Z,93978.31
2023-07-30T15:58:12.355Z,93982.09
2023-07-30T16:00:39.462Z,93971.41
2023-07-30T16:03:08.253Z,93976.25
2023-07-30T16:05:35.485Z,93968.94
2023-07-30T16:08:02.568Z,93971.44
2023-07-30T16:10:29.635Z,93960.59
2023-07-30T16:13:00.050Z,93958.69
2023-07-30T16:15:28.697Z,93958.47
2023-07-30T16:17:55.978Z,93961.59
2023-07-30T16:20:24.304Z,93958.06
2023-07-30T16:22:51.401Z,93955.56
2023-07-30T16:25:18.552Z,93959.06
2023-07-30T16:27:45.601Z,93955.59
2023-07-30T16:30:12.585Z,93942.94
2023-07-30T16:32:39.736Z,93951.69
2023-07-30T16:35:07.252Z,93946.66
2023-07-30T16:37:34.267Z,93950.19
2023-07-30T16:40:01.313Z,93959.53
2023-07-30T16:42:28.254Z,93953.31
2023-07-30T16:44:55.703Z,93953.69
2023-07-30T16:47:22.974Z,93958.91
2023-07-30T16:49:50.506Z,93961.41
2023-07-30T16:52:17.828Z,93967.88
2023-07-30T16:54:45.054Z,93970.03
2023-07-30T16:57:12.258Z,93970.13
2023-07-30T16:59:41.961Z,93968.88
2023-07-30T17:02:09.042Z,93976.59
2023-07-30T17:04:36.016Z,93981.84
2023-07-30T17:07:03.415Z,93983.41
2023-07-30T17:09:30.434Z,93984.03
2023-07-30T17:11:57.337Z,93977.16
2023-07-30T17:14:24.464Z,93994.09
2023-07-30T17:16:51.533Z,93986.13
2023-07-30T17:19:18.653Z,93989.63
2023-07-30T17:21:45.724Z,93982.69
2023-07-30T17:24:12.912Z,93977.59
2023-07-30T17:26:40.183Z,93987.81
2023-07-30T17:29:07.511Z,93979.13
2023-07-30T17:31:34.703Z,93969.19
2023-07-30T17:34:01.683Z,93978.47
2023-07-30T17:36:28.670Z,93967.94
2023-07-30T17:38:55.933Z,93976.28
2023-07-30T17:41:23.107Z,93978.88
2023-07-30T17:43:50.070Z,93984.56
2023-07-30T17:46:19.570Z,93995.97
2023-07-30T17:48:46.578Z,93983.25
2023-07-30T17:51:17.800Z,93979.03
2023-07-30T17:53:45.562Z,93983.09
2023-07-30T17:56:12.698Z,93987.09
2023-07-30T17:58:39.802Z,93983.66
2023-07-30T18:01:07.244Z,93985.59
2023-07-30T18:03:35.406Z,93993.38
2023-07-30T18:06:03.445Z,93996.88
2023-07-30T18:08:31.111Z,93998.19
2023-07-30T18:10:58.097Z,94002.78
2023-07-30T18:13:25.173Z,93999.56
2023-07-30T18:15:52.196Z,94003.72
2023-07-30T18:18:21.534Z,93999.19
2023-07-30T18:20:48.627Z,94001.97
2023-07-30T18:23:15.869Z,94008.19
2023-07-30T18:25:42.890Z,94012.31
2023-07-30T18:28:09.904Z,94026.13
2023-07-30T18:30:37.824Z,94021.91
2023-07-30T18:33:09.538Z,94029.91
2023-07-30T18:35:38.390Z,94034.34
2023-07-30T18:38:05.718Z,94035.38
2023-07-30T18:40:36.892Z,94039.56
2023-07-30T18:43:05.093Z,94041.13
2023-07-30T18:45:34.424Z,94046.72
2023-07-30T18:48:02.436Z,94047.59
2023-07-30T18:50:30.977Z,94043.53
2023-07-30T18:52:58.150Z,94042.06
2023-07-30T18:55:25.213Z,94052.50
2023-07-30T18:57:52.252Z,94056.06
2023-07-30T19:00:19.555Z,94059.03
2023-07-30T19:02:46.655Z,94063.19
2023-07-30T19:05:13.764Z,94060.53
2023-07-30T19:07:40.787Z,94065.00
2023-07-30T19:10:08.489Z,94065.88
2023-07-30T19:12:35.469Z,94058.09
2023-07-30T19:15:03.869Z,94058.09
2023-07-30T19:17:31.027Z,94054.94
2023-07-30T19:19:57.950Z,94051.81
2023-07-30T19:22:25.107Z,94053.47
2023-07-30T19:24:52.175Z,94052.00
2023-07-30T19:27:19.166Z,94057.16
2023-07-30T19:29:46.136Z,94057.69
2023-07-30T19:32:13.115Z,94081.47
2023-07-30T19:34:40.042Z,94092.91
2023-07-30T19:37:07.123Z,94097.91
2023-07-30T19:39:34.243Z,94120.84
2023-07-30T19:42:01.356Z,94132.72
2023-07-30T19:44:28.820Z,94132.09
2023-07-30T19:46:55.832Z,94144.44
2023-07-30T19:49:24.407Z,94156.28
2023-07-30T19:51:51.972Z,94157.63
2023-07-30T19:54:19.025Z,94173.44
2023-07-30T19:56:46.089Z,94179.03
2023-07-30T19:59:13.099Z,94177.16
2023-07-30T20:01:40.274Z,94185.44
2023-07-30T20:04:07.415Z,94179.53
2023-07-30T20:06:34.477Z,94181.94
2023-07-30T20:09:01.345Z,94201.13
2023-07-30T20:11:28.512Z,94193.63
2023-07-30T20:13:55.543Z,94206.88
2023-07-30T20:16:22.593Z,94201.75
2023-07-30T20:18:49.694Z,94226.44
2023-07-30T20:21:16.799Z,94229.50
2023-07-30T20:23:43.759Z,94235.75
2023-07-30T20:26:15.501Z,94224.38
2023-07-30T20:28:43.578Z,94242.63
2023-07-30T20:31:10.819Z,94233.97
2023-07-30T20:33:37.813Z,94249.66
2023-07-30T20:36:05.563Z,94249.28
2023-07-30T20:38:32.617Z,94237.13
2023-07-30T20:41:00.316Z,94237.56
2023-07-30T20:43:27.803Z,94229.34
2023-07-30T20:45:55.064Z,94232.44
2023-07-30T20:48:22.074Z,94243.41
2023-07-30T20:50:49.354Z,94239.50
2023-07-30T20:53:16.406Z,94241.44
2023-07-30T20:55:43.404Z,94237.53
2023-07-30T20:58:10.348Z,94250.13
2023-07-30T21:00:37.244Z,94235.63
2023-07-30T21:03:04.602Z,94244.56
2023-07-30T21:05:31.591Z,94235.59
2023-07-30T21:07:58.607Z,94239.63
2023-07-30T21:10:25.604Z,94230.66
2023-07-30T21:12:52.553Z,94234.97
2023-07-30T21:15:19.502Z,94220.94
2023-07-30T21:17:46.455Z,94218.94
2023-07-30T21:20:13.556Z,94221.66
2023-07-30T21:22:40.521Z,94224.88
2023-07-30T21:25:08.327Z,94204.50
2023-07-30T21:27:35.336Z,94215.84
2023-07-30T21:30:02.778Z,94217.00
2023-07-30T21:32:29.883Z,94225.25
2023-07-30T21:34:57.107Z,94220.91
2023-07-30T21:37:24.408Z,94214.59
2023-07-30T21:39:51.392Z,94214.59
2023-07-30T21:42:18.350Z,94209.59
2023-07-30T21:44:45.270Z,94211.53
2023-07-30T21:47:12.337Z,94219.78
2023-07-30T21:49:39.326Z,94225.34
2023-07-30T21:52:27.931Z,94232.81
2023-07-30T21:54:55.422Z,94230.84
2023-07-30T21:57:23.949Z,94236.28
2023-07-30T21:59:52.591Z,94232.81
2023-07-30T22:02:20.803Z,94222.56
2023-07-30T22:04:48.113Z,94228.06
2023-07-30T22:07:15.282Z,94229.97
2023-07-30T22:09:43.059Z,94221.72
2023-07-30T22:12:10.813Z,94226.44
2023-07-30T22:14:38.737Z,94225.25
2023-07-30T22:17:06.289Z,94233.78
2023-07-30T22:19:33.383Z,94241.88
2023-07-30T22:22:00.432Z,94239.38
2023-07-30T22:24:27.549Z,94242.03
2023-07-30T22:26:54.470Z,94256.84
2023-07-30T22:29:21.470Z,94247.47
2023-07-30T22:31:48.620Z,94258.78
2023-07-30T22:34:15.703Z,94274.41
2023-07-30T22:36:42.896Z,94276.63
2023-07-30T22:39:10.000Z,94288.22
2023-07-30T22:41:36.916Z,94287.41
2023-07-30T22:44:04.132Z,94278.22
2023-07-30T22:46:31.075Z,94291.91
2023-07-30T22:48:58.121Z,94278.72
2023-07-30T22:51:25.065Z,94285.47
2023-07-30T22:53:52.044Z,94288.38
2023-07-30T22:56:18.988Z,94280.28
2023-07-30T22:58:47.104Z,94283.88
2023-07-30T23:01:15.804Z,94281.53
2023-07-30T23:03:43.079Z,94281.78
2023-07-30T23:06:10.259Z,94284.94
2023-07-30T23:08:37.213Z,94292.72
2023-07-30T23:11:04.157Z,94294.84
2023-07-30T23:13:31.104Z,94295.47
2023-07-30T23:15:58.136Z,94304.03
2023-07-30T23:18:25.156Z,94310.09
2023-07-30T23:20:52.124Z,94310.81
2023-07-30T23:23:19.070Z,94306.19
2023-07-30T23:25:46.034Z,94296.72
2023-07-30T23:28:13.031Z,94291.28
2023-07-30T23:30:40.680Z,94286.56
2023-07-30T23:33:07.830Z,94294.19
2023-07-30T23:35:34.787Z,94292.88
2023-07-30T23:38:01.743Z,94295.41
2023-07-30T23:40:28.734Z,94302.03
2023-07-30T23:42:55.715Z,94301.88
2023-07-30T23:45:22.736Z,94301.50
2023-07-30T23:47:50.408Z,94298.94
2023-07-30T23:50:17.743Z,94304.84
2023-07-30T23:52:44.958Z,94309.09
2023-07-30T23:55:12.413Z,94314.88
2023-07-30T23:57:39.519Z,94319.16
